createdAt,value
2023-03-25T00:02:30.998Z,98862.34
2023-03-25T00:06:47.803Z,98869.12
2023-03-25T00:11:05.505Z,98871.78
2023-03-25T00:15:22.664Z,98888.59
2023-03-25T00:19:38.844Z,98893.16
2023-03-25T00:23:55.717Z,98893.78
2023-03-25T00:28:14.057Z,98888.31
2023-03-25T00:32:30.306Z,98899.41
2023-03-25T00:36:46.519Z,98901.38
2023-03-25T00:41:26.054Z,98909.97
2023-03-25T00:45:42.409Z,98921.28
2023-03-25T00:49:58.651Z,98915.16
2023-03-25T00:54:14.849Z,98919.88
2023-03-25T00:58:31.204Z,98912.09
2023-03-25T01:02:49.126Z,98923.22
2023-03-25T01:07:05.399Z,98932.09
2023-03-25T01:11:23.849Z,98921.47
2023-03-25T01:15:41.229Z,98926.97
2023-03-25T01:19:57.482Z,98936.72
2023-03-25T01:24:15.559Z,98938.19
2023-03-25T01:28:31.735Z,98934.28
2023-03-25T01:32:48.324Z,98935.47
2023-03-25T01:37:04.759Z,98936.69
2023-03-25T01:41:21.003Z,98936.94
2023-03-25T01:45:37.571Z,98927.75
2023-03-25T01:49:54.487Z,98926.03
2023-03-25T01:54:12.982Z,98936.47
2023-03-25T01:58:29.899Z,98929.88
2023-03-25T02:02:47.084Z,98930.38
2023-03-25T02:07:03.461Z,98933.03
2023-03-25T02:11:19.769Z,98925.53
2023-03-25T02:16:07.342Z,98931.19
2023-03-25T02:21:08.554Z,98935.59
2023-03-25T02:25:39.850Z,98926.37
2023-03-25T02:30:20.408Z,98929.78
2023-03-25T02:34:49.059Z,98912.22
2023-03-25T02:39:23.924Z,98900.69
2023-03-25T02:43:51.852Z,98905.72
2023-03-25T02:48:15.654Z,98918.87
2023-03-25T02:52:39.942Z,98921.25
2023-03-25T02:56:58.133Z,98920.59
2023-03-25T03:01:15.175Z,98912.25
2023-03-25T03:05:34.169Z,98919.03
2023-03-25T03:10:11.157Z,98911.84
2023-03-25T03:15:05.056Z,98916.19
2023-03-25T03:19:24.396Z,98917.69
2023-03-25T03:23:55.897Z,98928.34
2023-03-25T03:28:30.323Z,98915.47
2023-03-25T03:33:03.305Z,98914.31
2023-03-25T03:37:26.626Z,98919.63
2023-03-25T03:41:43.741Z,98920.22
2023-03-25T03:46:05.415Z,98918.41
2023-03-25T03:50:33.189Z,98929.13
2023-03-25T03:54:57.026Z,98930.16
2023-03-25T03:59:36.407Z,98933.91
2023-03-25T04:04:03.047Z,98929.53
2023-03-25T04:08:52.570Z,98938.47
2023-03-25T04:13:15.023Z,98955.06
2023-03-25T04:17:33.228Z,98949.50
2023-03-25T04:21:49.453Z,98964.28
2023-03-25T04:26:06.476Z,98970.75
2023-03-25T04:30:22.720Z,98978.84
2023-03-25T04:34:39.476Z,98970.16
2023-03-25T04:38:56.259Z,98978.25
2023-03-25T04:43:16.502Z,98983.53
2023-03-25T04:47:32.798Z,98976.41
2023-03-25T04:51:51.725Z,98977.84
2023-03-25T04:56:16.454Z,98977.63
2023-03-25T05:00:32.779Z,98965.47
2023-03-25T05:04:49.078Z,98970.47
2023-03-25T05:09:07.858Z,98981.34
2023-03-25T05:13:24.109Z,98987.31
2023-03-25T05:17:41.542Z,98987.31
2023-03-25T05:21:58.290Z,98988.78
2023-03-25T05:26:14.776Z,98979.25
2023-03-25T05:30:32.687Z,98984.72
2023-03-25T05:34:50.201Z,98980.84
2023-03-25T05:39:06.506Z,99001.03
2023-03-25T05:43:23.086Z,99003.25
2023-03-25T05:47:40.413Z,99001.53
2023-03-25T05:51:57.258Z,98999.88
2023-03-25T05:56:13.517Z,99007.91
2023-03-25T06:00:30.766Z,99012.13
2023-03-25T06:04:51.260Z,99020.16
2023-03-25T06:09:07.986Z,99025.03
2023-03-25T06:13:24.748Z,99026.16
2023-03-25T06:17:41.674Z,99026.44
2023-03-25T06:21:57.982Z,99033.72
2023-03-25T06:26:14.649Z,99033.31
2023-03-25T06:30:31.003Z,99028.06
2023-03-25T06:34:47.232Z,99018.37
2023-03-25T06:39:05.537Z,99015.13
2023-03-25T06:43:21.841Z,99040.59
2023-03-25T06:47:38.087Z,99038.81
2023-03-25T06:51:54.439Z,99046.72
2023-03-25T06:56:10.972Z,99050.84
2023-03-25T07:00:28.733Z,99051.78
2023-03-25T07:04:45.294Z,99038.22
2023-03-25T07:09:01.530Z,99049.53
2023-03-25T07:13:17.707Z,99061.53
2023-03-25T07:17:36.355Z,99071.94
2023-03-25T07:21:52.637Z,99070.81
2023-03-25T07:26:08.899Z,99065.09
2023-03-25T07:30:25.223Z,99052.88
2023-03-25T07:34:41.369Z,99061.03
2023-03-25T07:38:57.651Z,99065.94
2023-03-25T07:43:14.000Z,99074.84
2023-03-25T07:47:30.371Z,99065.00
2023-03-25T07:51:46.996Z,99067.84
2023-03-25T07:56:03.260Z,99072.81
2023-03-25T08:00:19.834Z,99062.50
2023-03-25T08:04:36.449Z,99062.63
2023-03-25T08:08:52.614Z,99058.59
2023-03-25T08:13:08.862Z,99059.03
2023-03-25T08:17:25.249Z,99043.88
2023-03-25T08:21:42.780Z,99037.12
2023-03-25T08:25:58.909Z,99038.63
2023-03-25T08:30:16.030Z,99036.94
2023-03-25T08:34:34.761Z,99021.03
2023-03-25T08:38:51.789Z,99018.56
2023-03-25T08:43:08.063Z,99013.62
2023-03-25T08:47:24.331Z,99007.78
2023-03-25T08:51:40.526Z,99012.16
2023-03-25T08:55:58.366Z,99020.91
2023-03-25T09:00:15.173Z,99021.03
2023-03-25T09:04:31.465Z,99017.03
2023-03-25T09:08:50.370Z,98999.06
2023-03-25T09:13:06.912Z,98988.16
2023-03-25T09:17:23.318Z,99005.22
2023-03-25T09:21:39.517Z,99002.37
2023-03-25T09:25:56.874Z,99000.63
2023-03-25T09:30:13.454Z,98991.47
2023-03-25T09:34:29.790Z,99011.00
2023-03-25T09:38:46.864Z,99011.50
2023-03-25T09:43:21.937Z,98995.63
2023-03-25T09:47:39.292Z,98992.78
2023-03-25T09:51:56.266Z,98987.25
2023-03-25T09:56:24.806Z,98998.28
2023-03-25T10:00:41.149Z,98994.72
2023-03-25T10:05:19.190Z,98989.91
2023-03-25T10:09:44.490Z,99003.59
2023-03-25T10:14:19.923Z,98997.44
2023-03-25T10:18:51.241Z,99003.56
2023-03-25T10:23:34.958Z,99005.53
2023-03-25T10:27:52.445Z,99015.28
2023-03-25T10:32:24.172Z,99015.53
2023-03-25T10:36:58.304Z,99018.28
2023-03-25T10:41:39.409Z,99006.75
2023-03-25T10:46:17.169Z,99004.81
2023-03-25T10:50:34.112Z,99012.69
2023-03-25T10:54:54.960Z,99029.00
2023-03-25T10:59:41.828Z,99019.06
2023-03-25T11:04:00.392Z,99035.75
2023-03-25T11:08:25.133Z,99019.94
2023-03-25T11:12:46.719Z,99029.78
2023-03-25T11:17:05.917Z,99038.16
2023-03-25T11:21:22.402Z,99032.81
2023-03-25T11:25:42.191Z,99042.38
2023-03-25T11:30:08.841Z,99062.25
2023-03-25T11:34:25.443Z,99046.94
2023-03-25T11:38:41.935Z,99045.28
2023-03-25T11:43:00.604Z,99040.44
2023-03-25T11:47:21.627Z,99055.63
2023-03-25T11:51:38.596Z,99060.03
2023-03-25T11:56:07.048Z,99064.84
2023-03-25T12:00:29.622Z,99071.00
2023-03-25T12:05:12.603Z,99066.78
2023-03-25T12:09:33.890Z,99058.56
2023-03-25T12:14:12.936Z,99060.78
2023-03-25T12:18:48.487Z,99058.56
2023-03-25T12:23:42.633Z,99038.13
2023-03-25T12:28:23.698Z,99025.84
2023-03-25T12:33:03.602Z,99031.22
2023-03-25T12:37:38.114Z,99020.53
2023-03-25T12:41:57.187Z,99017.81
2023-03-25T12:46:32.472Z,98994.84
2023-03-25T12:51:10.538Z,98983.41
2023-03-25T12:55:40.767Z,98975.88
2023-03-25T13:00:09.446Z,98970.69
2023-03-25T13:04:53.046Z,98970.97
2023-03-25T13:09:13.027Z,98972.06
2023-03-25T13:13:31.921Z,98965.94
2023-03-25T13:18:04.263Z,98970.78
2023-03-25T13:22:29.404Z,98957.87
2023-03-25T13:26:47.543Z,98960.50
2023-03-25T13:31:04.823Z,98964.03
2023-03-25T13:35:37.750Z,98967.47
2023-03-25T13:40:14.756Z,98971.19
2023-03-25T13:44:39.787Z,98977.22
2023-03-25T13:48:59.241Z,98976.91
2023-03-25T13:53:21.269Z,98967.50
2023-03-25T13:57:47.025Z,98966.31
2023-03-25T14:02:24.355Z,98969.88
2023-03-25T14:07:10.229Z,98975.28
2023-03-25T14:11:40.789Z,98959.31
2023-03-25T14:16:12.857Z,98964.69
2023-03-25T14:20:40.308Z,98963.03
2023-03-25T14:24:58.630Z,98963.44
2023-03-25T14:29:41.340Z,98973.22
2023-03-25T14:34:04.155Z,98972.87
2023-03-25T14:38:22.201Z,98977.56
2023-03-25T14:42:58.552Z,98975.16
2023-03-25T14:47:22.822Z,98965.94
2023-03-25T14:51:42.931Z,98978.06
2023-03-25T14:56:02.755Z,98985.50
2023-03-25T15:00:34.317Z,98978.06
2023-03-25T15:05:02.642Z,98982.09
2023-03-25T15:09:19.864Z,98961.09
2023-03-25T15:13:40.785Z,98967.22
2023-03-25T15:17:59.698Z,98964.34
2023-03-25T15:22:22.441Z,98969.03
2023-03-25T15:26:41.824Z,98965.16
2023-03-25T15:31:03.542Z,98971.25
2023-03-25T15:35:32.289Z,98954.50
2023-03-25T15:39:59.686Z,98959.34
2023-03-25T15:44:49.816Z,98957.22
2023-03-25T15:49:43.756Z,98951.69
2023-03-25T15:54:08.101Z,98966.38
2023-03-25T15:58:42.015Z,98960.91
2023-03-25T16:03:06.338Z,98964.37
2023-03-25T16:07:26.850Z,98963.66
2023-03-25T16:11:44.187Z,98947.88
2023-03-25T16:16:01.731Z,98954.41
2023-03-25T16:20:22.257Z,98952.28
2023-03-25T16:24:39.930Z,98960.34
2023-03-25T16:29:06.740Z,98939.38
2023-03-25T16:33:31.688Z,98941.66
2023-03-25T16:37:47.987Z,98942.78
2023-03-25T16:42:21.666Z,98943.75
2023-03-25T16:46:38.117Z,98951.63
2023-03-25T16:50:56.096Z,98949.37
2023-03-25T16:55:27.138Z,98969.44
2023-03-25T16:59:45.956Z,98967.06
2023-03-25T17:04:19.598Z,98983.56
2023-03-25T17:08:36.438Z,98985.13
2023-03-25T17:12:59.753Z,98985.13
2023-03-25T17:17:15.904Z,98988.06
2023-03-25T17:21:34.192Z,98989.13
2023-03-25T17:25:59.373Z,98993.34
2023-03-25T17:30:22.011Z,98991.22
2023-03-25T17:34:45.610Z,99006.78
2023-03-25T17:39:06.509Z,98996.78
2023-03-25T17:43:22.774Z,98998.31
2023-03-25T17:47:41.034Z,99004.63
2023-03-25T17:51:58.631Z,98999.31
2023-03-25T17:56:18.494Z,99008.38
2023-03-25T18:00:35.986Z,99006.16
2023-03-25T18:04:52.403Z,99019.66
2023-03-25T18:09:17.240Z,99018.06
2023-03-25T18:13:33.582Z,99021.91
2023-03-25T18:17:52.047Z,99035.63
2023-03-25T18:22:19.765Z,99037.00
2023-03-25T18:26:36.845Z,99044.97
2023-03-25T18:31:01.747Z,99051.72
2023-03-25T18:35:18.552Z,99068.44
2023-03-25T18:39:35.900Z,99071.13
2023-03-25T18:43:54.221Z,99077.22
2023-03-25T18:48:17.559Z,99092.84
2023-03-25T18:52:33.803Z,99096.16
2023-03-25T18:56:50.218Z,99092.84
2023-03-25T19:01:07.851Z,99104.38
2023-03-25T19:05:24.782Z,99110.22
2023-03-25T19:09:41.844Z,99116.81
2023-03-25T19:13:58.077Z,99114.66
2023-03-25T19:18:20.073Z,99112.31
2023-03-25T19:22:36.648Z,99102.97
2023-03-25T19:26:53.325Z,99104.41
2023-03-25T19:31:11.950Z,99101.25
2023-03-25T19:35:30.706Z,99095.94
2023-03-25T19:39:46.965Z,99136.19
2023-03-25T19:44:03.212Z,99154.56
2023-03-25T19:48:19.840Z,99152.03
2023-03-25T19:52:36.138Z,99151.75
2023-03-25T19:56:52.901Z,99155.94
2023-03-25T20:01:09.271Z,99147.44
2023-03-25T20:05:27.195Z,99140.78
2023-03-25T20:09:44.247Z,99144.59
2023-03-25T20:14:02.562Z,99136.34
2023-03-25T20:18:19.196Z,99149.22
2023-03-25T20:22:39.388Z,99126.06
2023-03-25T20:26:57.637Z,99132.72
2023-03-25T20:31:17.715Z,99133.94
2023-03-25T20:35:35.034Z,99148.22
2023-03-25T20:39:51.473Z,99145.34
2023-03-25T20:44:08.222Z,99140.66
2023-03-25T20:48:27.822Z,99131.13
2023-03-25T20:52:44.118Z,99147.97
2023-03-25T20:57:02.411Z,99159.09
2023-03-25T21:01:18.805Z,99164.38
2023-03-25T21:05:35.136Z,99169.87
2023-03-25T21:09:51.344Z,99167.94
2023-03-25T21:14:07.650Z,99186.84
2023-03-25T21:18:25.226Z,99183.63
2023-03-25T21:22:43.889Z,99191.75
2023-03-25T21:27:00.768Z,99195.19
2023-03-25T21:31:24.265Z,99198.97
2023-03-25T21:35:53.830Z,99207.91
2023-03-25T21:40:13.200Z,99212.00
2023-03-25T21:44:30.704Z,99201.00
2023-03-25T21:48:48.725Z,99200.22
2023-03-25T21:53:07.749Z,99193.94
2023-03-25T21:57:26.548Z,99188.84
2023-03-25T22:01:42.867Z,99185.47
2023-03-25T22:06:02.715Z,99198.41
2023-03-25T22:10:19.289Z,99192.59
2023-03-25T22:14:35.811Z,99186.53
2023-03-25T22:18:53.790Z,99186.50
2023-03-25T22:23:12.573Z,99194.72
2023-03-25T22:27:30.838Z,99192.13
2023-03-25T22:31:47.012Z,99196.84
2023-03-25T22:36:08.821Z,99211.81
2023-03-25T22:40:27.898Z,99214.59
2023-03-25T22:44:46.937Z,99223.94
2023-03-25T22:49:08.478Z,99215.37
2023-03-25T22:53:26.580Z,99211.03
2023-03-25T22:57:44.864Z,99221.97
2023-03-25T23:02:02.215Z,99223.19
2023-03-25T23:06:18.535Z,99226.44
2023-03-25T23:10:34.826Z,99234.19
2023-03-25T23:14:54.639Z,99241.72
2023-03-25T23:19:11.110Z,99250.75
2023-03-25T23:23:29.052Z,99251.47
2023-03-25T23:27:45.389Z,99250.00
2023-03-25T23:32:02.049Z,99258.28
2023-03-25T23:36:19.749Z,99256.91
2023-03-25T23:40:36.013Z,99251.72
2023-03-25T23:44:53.022Z,99255.81
2023-03-25T23:49:10.940Z,99246.34
2023-03-25T23:53:27.791Z,99248.81
2023-03-25T23:57:44.143Z,99249.38
